createdAt,value
2017-12-08T00:00:32.332Z,7.10
2017-12-08T00:02:58.284Z,7.10
2017-12-08T00:05:24.261Z,7.00
2017-12-08T00:07:50.992Z,7.00
2017-12-08T00:10:16.944Z,7.00
2017-12-08T00:12:42.941Z,7.00
2017-12-08T00:15:09.715Z,7.00
2017-12-08T00:17:35.696Z,7.00
2017-12-08T00:20:02.445Z,7.00
2017-12-08T00:22:28.448Z,7.00
2017-12-08T00:24:54.413Z,7.10
2017-12-08T00:27:20.364Z,7.10
2017-12-08T00:29:46.505Z,7.00
2017-12-08T00:32:12.558Z,7.10
2017-12-08T00:34:38.598Z,7.10
2017-12-08T00:37:04.920Z,7.00
2017-12-08T00:39:31.047Z,7.10
2017-12-08T00:41:57.056Z,7.10
2017-12-08T00:47:01.147Z,7.10
2017-12-08T00:49:27.116Z,7.00
2017-12-08T00:51:53.093Z,7.00
2017-12-08T00:54:19.080Z,7.00
2017-12-08T00:56:45.076Z,7.00
2017-12-08T00:59:11.090Z,7.00
2017-12-08T01:01:38.139Z,7.00
2017-12-08T01:04:04.157Z,7.00
2017-12-08T01:06:30.906Z,7.10
2017-12-08T01:08:56.921Z,7.10
2017-12-08T01:11:23.708Z,7.10
2017-12-08T01:13:49.685Z,7.10
2017-12-08T01:16:16.393Z,7.10
2017-12-08T01:18:42.368Z,7.10
2017-12-08T01:21:08.396Z,7.10
2017-12-08T01:23:34.377Z,7.10
2017-12-08T01:26:01.073Z,7.00
2017-12-08T01:28:27.044Z,7.00
2017-12-08T01:30:53.762Z,7.10
2017-12-08T01:33:19.728Z,7.00
2017-12-08T01:35:45.696Z,7.00
2017-12-08T01:38:11.685Z,7.00
2017-12-08T01:40:37.701Z,6.90
2017-12-08T01:43:03.684Z,6.90
2017-12-08T01:45:29.679Z,7.00
2017-12-08T01:47:55.681Z,7.00
2017-12-08T01:50:21.644Z,6.90
2017-12-08T01:52:48.354Z,6.80
2017-12-08T01:55:14.353Z,6.80
2017-12-08T01:57:40.351Z,6.80
2017-12-08T02:00:08.041Z,6.70
2017-12-08T02:02:34.005Z,6.70
2017-12-08T02:04:59.978Z,6.80
2017-12-08T02:07:25.961Z,6.80
2017-12-08T02:09:51.965Z,6.70
2017-12-08T02:12:17.926Z,6.60
2017-12-08T02:14:44.020Z,6.70
2017-12-08T02:17:10.764Z,6.70
2017-12-08T02:19:38.218Z,6.70
2017-12-08T02:22:04.946Z,6.60
2017-12-08T02:24:30.922Z,6.60
2017-12-08T02:26:56.893Z,6.60
2017-12-08T02:29:23.616Z,6.70
2017-12-08T02:31:49.604Z,6.70
2017-12-08T02:34:15.581Z,6.70
2017-12-08T02:36:42.326Z,6.60
2017-12-08T02:39:08.328Z,6.60
2017-12-08T02:41:35.795Z,6.60
2017-12-08T02:44:02.497Z,6.60
2017-12-08T02:46:28.468Z,6.50
2017-12-08T02:48:55.188Z,6.50
2017-12-08T02:51:21.965Z,6.50
2017-12-08T02:53:47.916Z,6.50
2017-12-08T02:56:13.896Z,6.50
2017-12-08T02:58:40.601Z,6.50
2017-12-08T03:01:07.448Z,6.40
2017-12-08T03:03:33.428Z,6.40
2017-12-08T03:05:59.411Z,6.50
2017-12-08T03:08:26.165Z,6.40
2017-12-08T03:10:52.121Z,6.40
2017-12-08T03:13:18.082Z,6.30
2017-12-08T03:15:44.825Z,6.40
2017-12-08T03:18:11.557Z,6.40
2017-12-08T03:20:38.265Z,6.40
2017-12-08T03:23:04.259Z,6.40
2017-12-08T03:25:30.242Z,6.30
2017-12-08T03:27:56.961Z,6.30
2017-12-08T03:30:22.949Z,6.30
2017-12-08T03:32:48.913Z,6.30
2017-12-08T03:35:14.893Z,6.30
2017-12-08T03:37:40.916Z,6.30
2017-12-08T03:40:06.969Z,6.30
2017-12-08T03:42:33.054Z,6.20
2017-12-08T03:44:59.046Z,6.20
2017-12-08T03:47:25.752Z,6.10
2017-12-08T03:49:51.721Z,6.10
2017-12-08T03:52:17.700Z,6.10
2017-12-08T03:54:43.673Z,6.10
2017-12-08T03:57:09.673Z,6.10
2017-12-08T03:59:36.426Z,6.10
2017-12-08T04:02:02.422Z,6.10
2017-12-08T04:04:29.160Z,6.10
2017-12-08T04:06:55.888Z,6.20
2017-12-08T04:09:21.880Z,6.20
2017-12-08T04:11:47.848Z,6.10
2017-12-08T04:14:13.805Z,6.10
2017-12-08T04:16:39.797Z,6.20
2017-12-08T04:19:07.555Z,6.00
2017-12-08T04:21:34.269Z,6.00
2017-12-08T04:24:00.252Z,6.00
2017-12-08T04:26:26.240Z,6.00
2017-12-08T04:28:52.953Z,6.10
2017-12-08T04:31:18.935Z,6.10
2017-12-08T04:33:45.218Z,5.90
2017-12-08T04:36:11.955Z,5.80
2017-12-08T04:38:37.903Z,5.80
2017-12-08T04:41:03.865Z,5.90
2017-12-08T04:43:29.841Z,5.90
2017-12-08T04:45:56.064Z,5.90
2017-12-08T04:48:22.772Z,5.90
2017-12-08T04:50:48.749Z,5.90
2017-12-08T04:53:14.753Z,5.90
2017-12-08T04:55:40.720Z,5.70
2017-12-08T04:58:06.699Z,5.80
2017-12-08T05:00:32.692Z,5.80
2017-12-08T05:02:58.674Z,5.90
2017-12-08T05:05:24.653Z,5.80
2017-12-08T05:07:51.577Z,5.80
2017-12-08T05:10:17.581Z,5.80
2017-12-08T05:12:43.556Z,5.70
2017-12-08T05:15:09.850Z,5.80
2017-12-08T05:17:35.828Z,5.70
2017-12-08T05:20:01.828Z,5.80
2017-12-08T05:22:27.796Z,5.70
2017-12-08T05:24:53.776Z,5.90
2017-12-08T05:27:19.748Z,5.90
2017-12-08T05:29:45.761Z,6.00
2017-12-08T05:32:11.725Z,5.80
2017-12-08T05:34:37.690Z,5.80
2017-12-08T05:37:03.864Z,5.80
2017-12-08T05:39:30.568Z,5.60
2017-12-08T05:41:56.572Z,5.60
2017-12-08T05:44:22.559Z,5.50
2017-12-08T05:46:49.285Z,5.50
2017-12-08T05:49:16.012Z,5.50
2017-12-08T05:51:42.738Z,5.60
2017-12-08T05:54:09.476Z,5.50
2017-12-08T05:56:35.445Z,5.50
2017-12-08T05:59:01.728Z,5.60
2017-12-08T06:01:27.751Z,5.60
2017-12-08T06:03:54.526Z,5.50
2017-12-08T06:06:20.721Z,5.50
2017-12-08T06:08:46.730Z,5.40
2017-12-08T06:11:12.728Z,5.50
2017-12-08T06:13:38.892Z,5.50
2017-12-08T06:16:04.873Z,5.40
2017-12-08T06:18:30.838Z,5.40
2017-12-08T06:20:56.859Z,5.40
2017-12-08T06:23:22.836Z,5.40
2017-12-08T06:25:48.796Z,5.40
2017-12-08T06:28:14.884Z,5.40
2017-12-08T06:30:40.865Z,5.50
2017-12-08T06:33:07.596Z,5.30
2017-12-08T06:35:34.349Z,5.30
2017-12-08T06:38:00.356Z,5.30
2017-12-08T06:40:27.084Z,5.20
2017-12-08T06:42:53.099Z,5.20
2017-12-08T06:45:19.115Z,5.20
2017-12-08T06:47:45.091Z,4.70
2017-12-08T06:50:11.094Z,4.70
2017-12-08T06:52:37.100Z,4.60
2017-12-08T06:55:03.845Z,4.60
2017-12-08T06:57:29.952Z,4.50
2017-12-08T06:59:55.968Z,4.50
2017-12-08T07:02:21.921Z,4.50
2017-12-08T07:04:47.909Z,4.40
2017-12-08T07:07:13.902Z,4.50
2017-12-08T07:09:39.876Z,4.30
2017-12-08T07:12:06.568Z,4.50
2017-12-08T07:14:32.535Z,4.40
2017-12-08T07:16:59.315Z,4.40
2017-12-08T07:19:26.318Z,4.40
2017-12-08T07:21:53.025Z,4.40
2017-12-08T07:24:18.985Z,4.40
2017-12-08T07:26:45.913Z,4.50
2017-12-08T07:29:12.632Z,4.60
2017-12-08T07:31:38.607Z,4.60
2017-12-08T07:34:04.585Z,4.50
2017-12-08T07:36:30.598Z,4.30
2017-12-08T07:38:56.560Z,4.30
2017-12-08T07:41:23.433Z,4.10
2017-12-08T07:43:49.429Z,4.10
2017-12-08T07:46:16.143Z,4.10
2017-12-08T07:48:43.209Z,4.10
2017-12-08T07:51:09.941Z,4.10
2017-12-08T07:53:36.639Z,4.20
2017-12-08T07:56:02.641Z,4.10
2017-12-08T07:58:28.615Z,4.10
2017-12-08T08:00:55.333Z,4.20
2017-12-08T08:03:21.341Z,4.20
2017-12-08T08:05:47.292Z,4.10
2017-12-08T08:08:13.282Z,3.90
2017-12-08T08:10:39.461Z,3.90
2017-12-08T08:13:06.181Z,4.00
2017-12-08T08:15:32.909Z,3.90
2017-12-08T08:17:58.894Z,3.90
2017-12-08T08:20:24.888Z,4.00
2017-12-08T08:22:58.044Z,4.00
2017-12-08T08:25:24.033Z,4.20
2017-12-08T08:27:50.032Z,4.20
2017-12-08T08:30:16.450Z,4.20
2017-12-08T08:32:42.417Z,4.20
2017-12-08T08:35:08.392Z,4.30
2017-12-08T08:37:34.688Z,4.20
2017-12-08T08:40:00.647Z,4.40
2017-12-08T08:42:26.645Z,4.40
2017-12-08T08:44:53.374Z,4.40
2017-12-08T08:47:19.325Z,4.40
2017-12-08T08:49:45.288Z,4.40
2017-12-08T08:52:11.257Z,4.50
2017-12-08T08:54:37.282Z,4.50
2017-12-08T08:57:03.306Z,4.50
2017-12-08T08:59:30.023Z,4.50
2017-12-08T09:01:56.301Z,4.50
2017-12-08T09:04:22.292Z,4.60
2017-12-08T09:06:49.006Z,4.50
2017-12-08T09:09:14.969Z,4.50
2017-12-08T09:11:41.273Z,4.50
2017-12-08T09:14:07.998Z,4.40
2017-12-08T09:16:34.746Z,4.50
2017-12-08T09:19:01.497Z,4.50
2017-12-08T09:21:28.213Z,4.60
2017-12-08T09:23:54.176Z,4.60
2017-12-08T09:26:20.391Z,4.50
2017-12-08T09:28:46.357Z,4.50
2017-12-08T09:31:12.324Z,4.50
2017-12-08T09:33:39.051Z,4.60
2017-12-08T09:36:05.745Z,4.40
2017-12-08T09:38:31.741Z,4.40
2017-12-08T09:40:57.768Z,4.40
2017-12-08T09:43:23.753Z,4.40
2017-12-08T09:45:50.625Z,4.60
2017-12-08T09:48:16.667Z,4.70
2017-12-08T09:50:42.629Z,4.70
2017-12-08T09:53:08.639Z,4.60
2017-12-08T09:55:34.613Z,4.30
2017-12-08T09:58:00.602Z,4.40
2017-12-08T10:00:27.321Z,4.60
2017-12-08T10:02:53.308Z,4.50
2017-12-08T10:05:19.289Z,4.60
2017-12-08T10:07:46.325Z,4.30
2017-12-08T10:10:12.311Z,4.30
2017-12-08T10:12:38.373Z,4.30
2017-12-08T10:15:05.105Z,4.40
2017-12-08T10:17:31.086Z,4.40
2017-12-08T10:19:57.040Z,4.40
2017-12-08T10:22:23.044Z,4.40
2017-12-08T10:24:49.033Z,4.40
2017-12-08T10:27:15.032Z,4.30
2017-12-08T10:29:41.785Z,4.40
2017-12-08T10:32:07.765Z,4.40
2017-12-08T10:34:33.755Z,4.40
2017-12-08T10:36:59.754Z,4.30
2017-12-08T10:39:25.725Z,4.30
2017-12-08T10:41:51.698Z,4.20
2017-12-08T10:44:18.063Z,4.20
2017-12-08T10:46:44.054Z,4.30
2017-12-08T10:49:10.031Z,4.40
2017-12-08T10:51:36.761Z,4.50
2017-12-08T10:54:03.483Z,4.50
2017-12-08T10:56:29.459Z,4.40
2017-12-08T10:58:55.465Z,4.30
2017-12-08T11:01:22.172Z,4.20
2017-12-08T11:03:48.174Z,4.20
2017-12-08T11:06:14.332Z,4.20
2017-12-08T11:08:41.028Z,4.10
2017-12-08T11:11:07.017Z,4.10
2017-12-08T11:13:33.200Z,4.10
2017-12-08T11:15:59.182Z,4.10
2017-12-08T11:18:25.670Z,4.10
2017-12-08T11:20:52.385Z,4.00
2017-12-08T11:23:18.377Z,4.00
2017-12-08T11:25:44.548Z,3.90
2017-12-08T11:28:10.538Z,3.80
2017-12-08T11:30:36.500Z,3.70
2017-12-08T11:33:03.258Z,3.60
2017-12-08T11:35:29.254Z,3.70
2017-12-08T11:37:55.973Z,3.10
2017-12-08T11:40:22.220Z,3.00
2017-12-08T11:42:48.954Z,3.10
2017-12-08T11:45:15.652Z,3.10
2017-12-08T11:47:41.625Z,3.10
2017-12-08T11:50:08.322Z,3.10
2017-12-08T11:52:34.281Z,3.10
2017-12-08T11:55:00.992Z,3.10
2017-12-08T11:57:26.979Z,3.10
2017-12-08T11:59:52.972Z,3.00
2017-12-08T12:02:18.995Z,3.10
2017-12-08T12:04:45.005Z,3.00
2017-12-08T12:07:11.697Z,3.00
2017-12-08T12:09:37.693Z,2.90
2017-12-08T12:12:03.648Z,3.00
2017-12-08T12:14:29.633Z,3.10
2017-12-08T12:16:55.600Z,3.00
2017-12-08T12:19:21.572Z,3.10
2017-12-08T12:21:47.553Z,2.90
2017-12-08T12:24:14.439Z,3.20
2017-12-08T12:26:40.420Z,3.20
2017-12-08T12:29:07.134Z,3.00
2017-12-08T12:31:33.121Z,3.00
2017-12-08T12:33:59.085Z,3.10
2017-12-08T12:36:25.056Z,3.00
2017-12-08T12:38:51.064Z,3.00
2017-12-08T12:41:17.064Z,3.00
2017-12-08T12:43:43.789Z,2.90
2017-12-08T12:46:10.021Z,2.90
2017-12-08T12:48:36.741Z,2.80
2017-12-08T12:51:02.721Z,2.70
2017-12-08T12:53:28.704Z,2.80
2017-12-08T12:55:55.445Z,2.70
2017-12-08T12:58:22.172Z,2.70
2017-12-08T13:00:48.941Z,2.80
2017-12-08T13:03:14.925Z,2.80
2017-12-08T13:05:41.019Z,2.80
2017-12-08T13:08:07.016Z,2.90
2017-12-08T13:10:33.012Z,2.90
2017-12-08T13:12:59.766Z,3.00
2017-12-08T13:15:25.753Z,3.00
2017-12-08T13:17:53.680Z,3.00
2017-12-08T13:20:19.667Z,3.00
2017-12-08T13:22:45.638Z,3.00
2017-12-08T13:25:11.642Z,2.80
2017-12-08T13:27:37.613Z,2.60
2017-12-08T13:30:04.380Z,2.70
2017-12-08T13:32:30.345Z,2.70
2017-12-08T13:34:56.323Z,2.80
2017-12-08T13:37:22.309Z,2.80
2017-12-08T13:39:49.025Z,3.00
2017-12-08T13:42:15.009Z,2.90
2017-12-08T13:44:40.962Z,2.90
2017-12-08T13:47:06.970Z,3.10
2017-12-08T13:49:33.237Z,2.80
2017-12-08T13:51:59.953Z,2.80
2017-12-08T13:54:38.557Z,2.80
2017-12-08T13:57:04.517Z,2.80
2017-12-08T13:59:31.233Z,3.00
2017-12-08T14:01:57.225Z,3.00
2017-12-08T14:04:23.210Z,3.00
2017-12-08T14:06:49.181Z,3.00
2017-12-08T14:09:15.200Z,3.00
2017-12-08T14:11:41.176Z,3.10
2017-12-08T14:14:07.129Z,3.10
2017-12-08T14:16:33.149Z,2.80
2017-12-08T14:18:59.132Z,2.90
2017-12-08T14:21:25.103Z,3.00
2017-12-08T14:23:51.111Z,2.80
2017-12-08T14:26:17.117Z,2.80
2017-12-08T14:28:43.101Z,2.80
2017-12-08T14:31:09.852Z,2.90
2017-12-08T14:33:36.577Z,2.90
2017-12-08T14:36:03.302Z,3.10
2017-12-08T14:38:29.335Z,3.10
2017-12-08T14:40:56.066Z,3.00
2017-12-08T14:43:22.034Z,3.00
2017-12-08T14:45:48.055Z,3.10
2017-12-08T14:48:14.051Z,3.10
2017-12-08T14:50:40.778Z,3.00
2017-12-08T14:53:07.512Z,2.90
2017-12-08T14:55:34.240Z,3.00
2017-12-08T14:58:00.261Z,3.00
2017-12-08T15:00:26.501Z,2.90
2017-12-08T15:02:53.230Z,3.00
2017-12-08T15:05:19.207Z,3.00
2017-12-08T15:07:45.233Z,3.10
2017-12-08T15:10:11.236Z,3.30
2017-12-08T15:12:37.220Z,3.10
2017-12-08T15:15:03.245Z,3.00
2017-12-08T15:17:29.221Z,2.90
2017-12-08T15:19:55.181Z,2.90
2017-12-08T15:22:21.201Z,3.00
2017-12-08T15:24:47.185Z,3.00
2017-12-08T15:27:13.210Z,2.90
2017-12-08T15:29:39.256Z,3.00
2017-12-08T15:32:05.229Z,3.00
2017-12-08T15:34:31.228Z,3.20
2017-12-08T15:36:57.958Z,3.10
2017-12-08T15:39:24.709Z,3.20
2017-12-08T15:41:51.425Z,3.30
2017-12-08T15:44:17.414Z,3.30
2017-12-08T15:46:43.406Z,3.20
2017-12-08T15:49:09.381Z,3.20
2017-12-08T15:51:35.361Z,3.20
2017-12-08T15:54:01.352Z,3.10
2017-12-08T15:56:27.366Z,3.10
2017-12-08T15:58:54.837Z,3.00
2017-12-08T16:01:21.565Z,3.00
2017-12-08T16:03:48.273Z,3.00
2017-12-08T16:06:14.293Z,3.00
2017-12-08T16:08:40.273Z,2.90
2017-12-08T16:11:06.286Z,2.90
2017-12-08T16:13:33.050Z,3.40
2017-12-08T16:15:59.017Z,3.40
2017-12-08T16:18:25.013Z,3.50
2017-12-08T16:20:51.292Z,3.50
2017-12-08T16:23:18.001Z,3.10
2017-12-08T16:25:43.985Z,3.10
2017-12-08T16:28:10.185Z,3.00
2017-12-08T16:30:36.915Z,3.10
2017-12-08T16:33:03.638Z,3.10
2017-12-08T16:35:29.636Z,3.10
2017-12-08T16:37:55.620Z,3.10
2017-12-08T16:40:21.632Z,3.00
2017-12-08T16:42:47.648Z,3.00
2017-12-08T16:45:14.390Z,3.00
2017-12-08T16:47:41.134Z,3.00
2017-12-08T16:50:07.132Z,3.00
2017-12-08T16:52:33.859Z,3.20
2017-12-08T16:54:59.832Z,3.20
2017-12-08T16:57:25.804Z,3.20
2017-12-08T16:59:51.795Z,3.30
2017-12-08T17:02:17.787Z,3.30
2017-12-08T17:04:43.789Z,3.20
2017-12-08T17:07:10.528Z,3.20
2017-12-08T17:09:37.258Z,3.10
2017-12-08T17:12:04.018Z,3.10
2017-12-08T17:14:30.036Z,3.10
2017-12-08T17:16:56.021Z,3.10
2017-12-08T17:19:22.024Z,3.00
2017-12-08T17:21:48.037Z,2.90
2017-12-08T17:24:14.009Z,3.00
2017-12-08T17:26:40.238Z,3.20
2017-12-08T17:29:06.953Z,3.10
2017-12-08T17:31:33.016Z,3.10
2017-12-08T17:33:59.924Z,3.00
2017-12-08T17:36:25.901Z,3.00
2017-12-08T17:38:52.249Z,3.20
2017-12-08T17:41:18.426Z,3.20
2017-12-08T17:43:45.134Z,3.10
2017-12-08T17:46:11.135Z,3.10
2017-12-08T17:48:37.130Z,3.20
2017-12-08T17:51:03.428Z,3.10
2017-12-08T17:53:30.195Z,3.00
2017-12-08T17:55:56.199Z,3.00
2017-12-08T17:58:23.332Z,3.10
2017-12-08T18:00:49.329Z,3.10
2017-12-08T18:03:15.336Z,3.10
2017-12-08T18:05:41.497Z,3.10
2017-12-08T18:08:07.502Z,3.00
2017-12-08T18:10:33.556Z,3.10
2017-12-08T18:13:00.294Z,3.10
2017-12-08T18:15:27.041Z,3.00
2017-12-08T18:17:53.802Z,3.00
2017-12-08T18:20:19.824Z,3.00
2017-12-08T18:22:45.801Z,2.90
2017-12-08T18:25:11.814Z,2.90
2017-12-08T18:27:37.769Z,2.90
2017-12-08T18:30:04.510Z,2.80
2017-12-08T18:32:31.228Z,2.80
2017-12-08T18:34:57.973Z,2.80
2017-12-08T18:37:24.700Z,2.90
2017-12-08T18:39:50.704Z,2.90
2017-12-08T18:42:16.697Z,2.90
2017-12-08T18:44:42.715Z,2.80
2017-12-08T18:47:08.692Z,2.90
2017-12-08T18:49:35.033Z,2.80
2017-12-08T18:52:01.749Z,2.80
2017-12-08T18:54:27.728Z,2.80
2017-12-08T18:56:53.916Z,2.80
2017-12-08T18:59:20.625Z,2.60
2017-12-08T19:01:46.628Z,2.60
2017-12-08T19:04:12.625Z,2.70
2017-12-08T19:06:38.605Z,2.60
2017-12-08T19:09:04.578Z,2.70
2017-12-08T19:11:31.483Z,2.70
2017-12-08T19:13:58.192Z,2.60
2017-12-08T19:16:24.192Z,2.60
2017-12-08T19:18:50.186Z,2.60
2017-12-08T19:21:16.153Z,2.60
2017-12-08T19:23:42.123Z,2.60
2017-12-08T19:26:08.118Z,2.60
2017-12-08T19:28:34.117Z,2.60
2017-12-08T19:31:00.088Z,2.60
2017-12-08T19:33:26.077Z,2.60
2017-12-08T19:35:52.115Z,2.60
2017-12-08T19:38:18.837Z,2.60
2017-12-08T19:40:44.865Z,2.60
2017-12-08T19:43:10.866Z,2.50
2017-12-08T19:45:36.861Z,2.50
2017-12-08T19:48:02.850Z,2.40
2017-12-08T19:50:29.584Z,2.60
2017-12-08T19:52:56.352Z,2.50
2017-12-08T19:55:22.422Z,2.50
2017-12-08T19:57:48.416Z,2.60
2017-12-08T20:00:14.453Z,2.50
2017-12-08T20:02:40.807Z,2.40
2017-12-08T20:05:06.802Z,2.50
2017-12-08T20:07:39.805Z,2.50
2017-12-08T20:10:05.798Z,2.50
2017-12-08T20:12:31.794Z,2.50
2017-12-08T20:14:57.792Z,2.60
2017-12-08T20:17:23.841Z,2.40
2017-12-08T20:19:49.818Z,2.60
2017-12-08T20:22:15.868Z,2.50
2017-12-08T20:24:42.764Z,2.40
2017-12-08T20:27:08.782Z,2.40
2017-12-08T20:29:34.794Z,2.50
2017-12-08T20:32:01.069Z,2.50
2017-12-08T20:34:27.805Z,2.60
2017-12-08T20:36:53.777Z,2.60
2017-12-08T20:39:26.585Z,2.70
2017-12-08T20:41:52.573Z,2.60
2017-12-08T20:44:18.576Z,2.60
2017-12-08T20:46:46.369Z,2.60
2017-12-08T20:49:12.369Z,2.60
2017-12-08T20:51:38.404Z,2.50
2017-12-08T20:54:04.449Z,2.50
2017-12-08T20:56:30.495Z,2.60
2017-12-08T20:58:56.537Z,2.60
2017-12-08T21:01:23.305Z,2.60
2017-12-08T21:03:49.352Z,2.60
2017-12-08T21:06:15.349Z,2.60
2017-12-08T21:08:41.376Z,2.70
2017-12-08T21:11:07.421Z,2.80
2017-12-08T21:13:33.438Z,2.70
2017-12-08T21:15:59.745Z,2.60
2017-12-08T21:18:25.776Z,2.70
2017-12-08T21:20:51.763Z,2.80
2017-12-08T21:23:18.705Z,2.70
2017-12-08T21:25:45.427Z,2.70
2017-12-08T21:28:11.422Z,2.70
2017-12-08T21:30:37.710Z,2.60
2017-12-08T21:33:04.453Z,2.60
2017-12-08T21:35:31.177Z,2.60
2017-12-08T21:37:57.903Z,2.50
2017-12-08T21:40:23.898Z,2.50
2017-12-08T21:42:49.870Z,2.50
2017-12-08T21:45:17.527Z,2.40
2017-12-08T21:47:44.245Z,2.40
2017-12-08T21:50:10.206Z,2.40
2017-12-08T21:52:36.210Z,2.50
2017-12-08T21:55:02.934Z,2.50
2017-12-08T21:57:28.923Z,2.50
2017-12-08T21:59:54.916Z,2.50
2017-12-08T22:02:20.893Z,2.50
2017-12-08T22:04:46.889Z,2.60
2017-12-08T22:07:13.157Z,2.60
2017-12-08T22:09:39.877Z,2.50
2017-12-08T22:12:05.869Z,2.50
2017-12-08T22:14:32.026Z,2.40
2017-12-08T22:16:57.992Z,2.50
2017-12-08T22:19:23.976Z,2.50
2017-12-08T22:21:49.944Z,2.80
2017-12-08T22:24:15.958Z,2.90
2017-12-08T22:26:42.136Z,2.70
2017-12-08T22:29:08.137Z,2.60
2017-12-08T22:31:34.132Z,2.50
2017-12-08T22:34:00.120Z,2.50
2017-12-08T22:36:26.838Z,2.50
2017-12-08T22:38:52.810Z,2.50
2017-12-08T22:41:18.823Z,2.60
2017-12-08T22:43:44.906Z,2.60
2017-12-08T22:46:12.379Z,2.60
2017-12-08T22:48:39.136Z,2.60
2017-12-08T22:51:05.854Z,2.70
2017-12-08T22:53:31.833Z,2.60
2017-12-08T22:55:57.826Z,2.50
2017-12-08T22:58:23.858Z,2.40
2017-12-08T23:00:49.872Z,2.50
2017-12-08T23:03:15.849Z,2.40
2017-12-08T23:05:41.813Z,2.30
2017-12-08T23:08:07.829Z,2.20
2017-12-08T23:10:34.550Z,2.20
2017-12-08T23:13:01.287Z,2.20
2017-12-08T23:15:28.029Z,2.10
2017-12-08T23:17:55.018Z,2.30
2017-12-08T23:20:21.029Z,2.30
2017-12-08T23:22:47.276Z,2.20
2017-12-08T23:25:13.248Z,2.20
2017-12-08T23:27:40.026Z,2.20
2017-12-08T23:30:06.107Z,2.20
2017-12-08T23:32:32.834Z,2.20
2017-12-08T23:34:58.831Z,2.20
2017-12-08T23:37:24.844Z,2.30
2017-12-08T23:39:50.823Z,2.20
2017-12-08T23:42:16.824Z,2.30
2017-12-08T23:44:43.554Z,2.30
2017-12-08T23:47:09.520Z,2.30
2017-12-08T23:49:35.492Z,2.40
2017-12-08T23:52:01.514Z,2.20
2017-12-08T23:54:27.488Z,2.20
2017-12-08T23:56:53.500Z,2.30
2017-12-08T23:59:20.245Z,2.30
